sensor_id;sensor_type;location;lat;lon;timestamp;temperature;humidity
16287;DHT22;8251;53.568;10.018;2022-09-02T00:01:23;19.10;62.90
16287;DHT22;8251;53.568;10.018;2022-09-02T00:03:59;19.00;63.00
16287;DHT22;8251;53.568;10.018;2022-09-02T00:06:29;19.00;63.10
16287;DHT22;8251;53.568;10.018;2022-09-02T00:09:00;19.00;63.20
16287;DHT22;8251;53.568;10.018;2022-09-02T00:11:33;18.90;63.20
16287;DHT22;8251;53.568;10.018;2022-09-02T00:14:06;18.90;63.40
16287;DHT22;8251;53.568;10.018;2022-09-02T00:16:33;18.80;63.80
16287;DHT22;8251;53.568;10.018;2022-09-02T00:19:01;18.90;63.70
16287;DHT22;8251;53.568;10.018;2022-09-02T00:21:33;18.80;63.80
16287;DHT22;8251;53.568;10.018;2022-09-02T00:24:02;18.70;63.80
16287;DHT22;8251;53.568;10.018;2022-09-02T00:26:30;18.70;64.00
16287;DHT22;8251;53.568;10.018;2022-09-02T00:29:01;18.60;64.00
16287;DHT22;8251;53.568;10.018;2022-09-02T00:31:43;18.60;64.10
16287;DHT22;8251;53.568;10.018;2022-09-02T00:34:11;18.60;64.20
16287;DHT22;8251;53.568;10.018;2022-09-02T00:36:42;18.60;64.40
16287;DHT22;8251;53.568;10.018;2022-09-02T00:39:10;18.60;64.40
16287;DHT22;8251;53.568;10.018;2022-09-02T00:41:39;18.50;64.40
16287;DHT22;8251;53.568;10.018;2022-09-02T00:44:10;18.60;64.50
16287;DHT22;8251;53.568;10.018;2022-09-02T00:46:41;18.50;64.60
16287;DHT22;8251;53.568;10.018;2022-09-02T00:49:11;18.50;64.70
16287;DHT22;8251;53.568;10.018;2022-09-02T00:51:49;18.40;64.80
16287;DHT22;8251;53.568;10.018;2022-09-02T00:54:20;18.40;64.80
16287;DHT22;8251;53.568;10.018;2022-09-02T00:56:52;18.40;64.90
16287;DHT22;8251;53.568;10.018;2022-09-02T00:59:29;18.40;65.00
16287;DHT22;8251;53.568;10.018;2022-09-02T01:02:03;18.30;65.10
16287;DHT22;8251;53.568;10.018;2022-09-02T01:04:36;18.30;65.30
16287;DHT22;8251;53.568;10.018;2022-09-02T01:07:18;18.30;65.40
16287;DHT22;8251;53.568;10.018;2022-09-02T01:09:50;18.20;65.40
16287;DHT22;8251;53.568;10.018;2022-09-02T01:12:21;18.20;65.60
16287;DHT22;8251;53.568;10.018;2022-09-02T01:14:53;18.20;66.50
16287;DHT22;8251;53.568;10.018;2022-09-02T01:17:22;18.10;65.70
16287;DHT22;8251;53.568;10.018;2022-09-02T01:19:56;18.10;65.90
16287;DHT22;8251;53.568;10.018;2022-09-02T01:22:41;18.10;65.90
16287;DHT22;8251;53.568;10.018;2022-09-02T01:25:13;18.10;65.90
16287;DHT22;8251;53.568;10.018;2022-09-02T01:27:44;18.10;66.00
16287;DHT22;8251;53.568;10.018;2022-09-02T01:30:18;18.00;66.10
16287;DHT22;8251;53.568;10.018;2022-09-02T01:32:45;18.00;66.10
16287;DHT22;8251;53.568;10.018;2022-09-02T01:35:12;18.00;66.10
16287;DHT22;8251;53.568;10.018;2022-09-02T01:37:41;18.00;66.20
16287;DHT22;8251;53.568;10.018;2022-09-02T01:40:10;18.00;66.30
16287;DHT22;8251;53.568;10.018;2022-09-02T01:42:40;18.00;66.30
16287;DHT22;8251;53.568;10.018;2022-09-02T01:45:09;18.00;66.40
16287;DHT22;8251;53.568;10.018;2022-09-02T01:47:38;18.00;66.40
16287;DHT22;8251;53.568;10.018;2022-09-02T01:50:06;17.90;66.50
16287;DHT22;8251;53.568;10.018;2022-09-02T01:52:35;17.90;66.60
16287;DHT22;8251;53.568;10.018;2022-09-02T01:55:04;17.90;66.50
16287;DHT22;8251;53.568;10.018;2022-09-02T01:57:32;17.90;66.60
16287;DHT22;8251;53.568;10.018;2022-09-02T02:00:00;17.90;66.60
16287;DHT22;8251;53.568;10.018;2022-09-02T02:02:30;17.90;66.70
16287;DHT22;8251;53.568;10.018;2022-09-02T02:05:00;17.90;66.80
16287;DHT22;8251;53.568;10.018;2022-09-02T02:07:27;17.80;66.70
16287;DHT22;8251;53.568;10.018;2022-09-02T02:09:55;17.80;66.80
16287;DHT22;8251;53.568;10.018;2022-09-02T02:12:29;17.70;66.90
16287;DHT22;8251;53.568;10.018;2022-09-02T02:15:03;17.70;67.00
16287;DHT22;8251;53.568;10.018;2022-09-02T02:17:34;17.70;67.20
16287;DHT22;8251;53.568;10.018;2022-09-02T02:20:05;17.70;67.30
16287;DHT22;8251;53.568;10.018;2022-09-02T02:22:39;17.60;67.40
16287;DHT22;8251;53.568;10.018;2022-09-02T02:25:10;17.60;67.50
16287;DHT22;8251;53.568;10.018;2022-09-02T02:27:44;17.50;67.60
16287;DHT22;8251;53.568;10.018;2022-09-02T02:30:15;17.50;67.80
16287;DHT22;8251;53.568;10.018;2022-09-02T02:32:46;17.50;67.80
16287;DHT22;8251;53.568;10.018;2022-09-02T02:35:14;17.50;67.90
16287;DHT22;8251;53.568;10.018;2022-09-02T02:37:46;17.50;68.00
16287;DHT22;8251;53.568;10.018;2022-09-02T02:40:15;17.50;68.10
16287;DHT22;8251;53.568;10.018;2022-09-02T02:42:46;17.50;68.10
16287;DHT22;8251;53.568;10.018;2022-09-02T02:45:26;17.40;68.10
16287;DHT22;8251;53.568;10.018;2022-09-02T02:47:53;17.40;68.20
16287;DHT22;8251;53.568;10.018;2022-09-02T02:50:25;17.40;68.30
16287;DHT22;8251;53.568;10.018;2022-09-02T02:52:55;17.40;68.40
16287;DHT22;8251;53.568;10.018;2022-09-02T02:55:28;17.40;68.30
16287;DHT22;8251;53.568;10.018;2022-09-02T02:57:57;17.40;68.40
16287;DHT22;8251;53.568;10.018;2022-09-02T03:00:28;17.40;68.40
16287;DHT22;8251;53.568;10.018;2022-09-02T03:02:56;17.40;68.40
16287;DHT22;8251;53.568;10.018;2022-09-02T03:05:34;17.40;68.50
16287;DHT22;8251;53.568;10.018;2022-09-02T03:08:03;17.40;68.60
16287;DHT22;8251;53.568;10.018;2022-09-02T03:10:32;17.30;68.70
16287;DHT22;8251;53.568;10.018;2022-09-02T03:13:03;17.30;68.70
16287;DHT22;8251;53.568;10.018;2022-09-02T03:15:30;17.30;68.70
16287;DHT22;8251;53.568;10.018;2022-09-02T03:18:00;17.30;68.80
16287;DHT22;8251;53.568;10.018;2022-09-02T03:20:30;17.30;68.90
16287;DHT22;8251;53.568;10.018;2022-09-02T03:23:00;17.30;68.90
16287;DHT22;8251;53.568;10.018;2022-09-02T03:25:31;17.30;69.10
16287;DHT22;8251;53.568;10.018;2022-09-02T03:28:03;17.30;69.00
16287;DHT22;8251;53.568;10.018;2022-09-02T03:30:34;17.40;69.00
16287;DHT22;8251;53.568;10.018;2022-09-02T03:33:09;17.30;68.90
16287;DHT22;8251;53.568;10.018;2022-09-02T03:35:40;17.30;68.90
16287;DHT22;8251;53.568;10.018;2022-09-02T03:38:11;17.30;69.00
16287;DHT22;8251;53.568;10.018;2022-09-02T03:40:40;17.30;69.10
16287;DHT22;8251;53.568;10.018;2022-09-02T03:43:12;17.30;69.10
16287;DHT22;8251;53.568;10.018;2022-09-02T03:45:43;17.30;69.10
16287;DHT22;8251;53.568;10.018;2022-09-02T03:48:14;17.30;69.30
16287;DHT22;8251;53.568;10.018;2022-09-02T03:50:44;17.30;69.30
16287;DHT22;8251;53.568;10.018;2022-09-02T03:53:13;17.30;69.40
16287;DHT22;8251;53.568;10.018;2022-09-02T03:55:43;17.30;69.50
16287;DHT22;8251;53.568;10.018;2022-09-02T03:58:13;17.30;69.50
16287;DHT22;8251;53.568;10.018;2022-09-02T04:00:40;17.20;69.50
16287;DHT22;8251;53.568;10.018;2022-09-02T04:03:08;17.20;69.60
16287;DHT22;8251;53.568;10.018;2022-09-02T04:05:37;17.20;69.60
16287;DHT22;8251;53.568;10.018;2022-09-02T04:08:04;17.20;69.70
16287;DHT22;8251;53.568;10.018;2022-09-02T04:10:37;17.20;69.80
16287;DHT22;8251;53.568;10.018;2022-09-02T04:13:04;17.10;69.90
16287;DHT22;8251;53.568;10.018;2022-09-02T04:15:32;17.00;70.00
16287;DHT22;8251;53.568;10.018;2022-09-02T04:18:02;17.00;70.10
16287;DHT22;8251;53.568;10.018;2022-09-02T04:20:30;17.00;70.20
16287;DHT22;8251;53.568;10.018;2022-09-02T04:22:57;17.00;70.30
16287;DHT22;8251;53.568;10.018;2022-09-02T04:25:29;17.00;70.50
16287;DHT22;8251;53.568;10.018;2022-09-02T04:27:56;17.00;70.50
16287;DHT22;8251;53.568;10.018;2022-09-02T04:30:33;17.00;70.60
16287;DHT22;8251;53.568;10.018;2022-09-02T04:33:00;17.00;70.60
16287;DHT22;8251;53.568;10.018;2022-09-02T04:35:28;17.00;70.60
16287;DHT22;8251;53.568;10.018;2022-09-02T04:37:59;17.00;70.60
16287;DHT22;8251;53.568;10.018;2022-09-02T04:40:27;17.00;70.60
16287;DHT22;8251;53.568;10.018;2022-09-02T04:42:54;17.00;70.60
16287;DHT22;8251;53.568;10.018;2022-09-02T04:45:21;17.00;70.60
16287;DHT22;8251;53.568;10.018;2022-09-02T04:47:50;17.00;70.60
16287;DHT22;8251;53.568;10.018;2022-09-02T04:50:22;17.00;70.60
16287;DHT22;8251;53.568;10.018;2022-09-02T04:52:50;17.00;70.60
16287;DHT22;8251;53.568;10.018;2022-09-02T04:55:18;17.00;70.70
16287;DHT22;8251;53.568;10.018;2022-09-02T04:57:46;17.00;70.80
16287;DHT22;8251;53.568;10.018;2022-09-02T05:00:14;17.00;70.80
16287;DHT22;8251;53.568;10.018;2022-09-02T05:02:42;17.00;70.80
16287;DHT22;8251;53.568;10.018;2022-09-02T05:05:10;17.00;70.80
16287;DHT22;8251;53.568;10.018;2022-09-02T05:07:39;17.00;70.80
16287;DHT22;8251;53.568;10.018;2022-09-02T05:10:08;17.00;70.80
16287;DHT22;8251;53.568;10.018;2022-09-02T05:12:36;17.10;70.90
16287;DHT22;8251;53.568;10.018;2022-09-02T05:15:06;17.10;70.80
16287;DHT22;8251;53.568;10.018;2022-09-02T05:17:35;17.10;70.80
16287;DHT22;8251;53.568;10.018;2022-09-02T05:20:05;17.10;70.90
16287;DHT22;8251;53.568;10.018;2022-09-02T05:22:35;17.10;71.00
16287;DHT22;8251;53.568;10.018;2022-09-02T05:25:03;17.10;70.80
16287;DHT22;8251;53.568;10.018;2022-09-02T05:27:32;17.10;70.80
16287;DHT22;8251;53.568;10.018;2022-09-02T05:30:02;17.10;70.80
16287;DHT22;8251;53.568;10.018;2022-09-02T05:32:30;17.10;70.70
16287;DHT22;8251;53.568;10.018;2022-09-02T05:34:57;17.20;70.70
16287;DHT22;8251;53.568;10.018;2022-09-02T05:37:24;17.20;70.60
16287;DHT22;8251;53.568;10.018;2022-09-02T05:39:53;17.20;70.60
16287;DHT22;8251;53.568;10.018;2022-09-02T05:42:20;17.20;70.60
16287;DHT22;8251;53.568;10.018;2022-09-02T05:44:47;17.30;70.70
16287;DHT22;8251;53.568;10.018;2022-09-02T05:47:15;17.20;70.80
16287;DHT22;8251;53.568;10.018;2022-09-02T05:49:42;17.20;70.60
16287;DHT22;8251;53.568;10.018;2022-09-02T05:52:12;17.20;70.50
16287;DHT22;8251;53.568;10.018;2022-09-02T05:54:42;17.30;70.60
16287;DHT22;8251;53.568;10.018;2022-09-02T05:57:15;17.30;70.60
16287;DHT22;8251;53.568;10.018;2022-09-02T05:59:49;17.30;70.40
16287;DHT22;8251;53.568;10.018;2022-09-02T06:02:21;17.30;70.40
16287;DHT22;8251;53.568;10.018;2022-09-02T06:04:50;17.30;70.40
16287;DHT22;8251;53.568;10.018;2022-09-02T06:07:19;17.30;70.20
16287;DHT22;8251;53.568;10.018;2022-09-02T06:09:47;17.40;70.00
16287;DHT22;8251;53.568;10.018;2022-09-02T06:12:17;17.40;70.00
16287;DHT22;8251;53.568;10.018;2022-09-02T06:14:45;17.50;69.80
16287;DHT22;8251;53.568;10.018;2022-09-02T06:17:13;17.60;69.80
16287;DHT22;8251;53.568;10.018;2022-09-02T06:19:41;17.70;69.60
16287;DHT22;8251;53.568;10.018;2022-09-02T06:22:12;17.80;69.20
16287;DHT22;8251;53.568;10.018;2022-09-02T06:24:40;18.10;69.00
16287;DHT22;8251;53.568;10.018;2022-09-02T06:27:09;18.30;68.20
16287;DHT22;8251;53.568;10.018;2022-09-02T06:29:37;18.50;67.30
16287;DHT22;8251;53.568;10.018;2022-09-02T06:32:05;18.70;66.60
16287;DHT22;8251;53.568;10.018;2022-09-02T06:34:33;19.00;65.80
16287;DHT22;8251;53.568;10.018;2022-09-02T06:37:02;19.20;64.60
16287;DHT22;8251;53.568;10.018;2022-09-02T06:39:32;19.90;63.20
16287;DHT22;8251;53.568;10.018;2022-09-02T06:41:59;20.90;60.20
16287;DHT22;8251;53.568;10.018;2022-09-02T06:44:27;21.70;57.60
16287;DHT22;8251;53.568;10.018;2022-09-02T06:46:57;22.30;56.30
16287;DHT22;8251;53.568;10.018;2022-09-02T06:49:27;22.90;55.00
16287;DHT22;8251;53.568;10.018;2022-09-02T06:51:55;23.20;54.00
16287;DHT22;8251;53.568;10.018;2022-09-02T06:54:25;23.60;53.00
16287;DHT22;8251;53.568;10.018;2022-09-02T06:56:53;23.90;51.70
16287;DHT22;8251;53.568;10.018;2022-09-02T06:59:23;24.30;51.10
16287;DHT22;8251;53.568;10.018;2022-09-02T07:01:52;24.50;50.50
16287;DHT22;8251;53.568;10.018;2022-09-02T07:04:20;24.50;50.40
16287;DHT22;8251;53.568;10.018;2022-09-02T07:07:06;24.20;50.80
16287;DHT22;8251;53.568;10.018;2022-09-02T07:09:33;23.80;51.60
16287;DHT22;8251;53.568;10.018;2022-09-02T07:12:02;23.60;52.10
16287;DHT22;8251;53.568;10.018;2022-09-02T07:14:30;23.50;52.30
16287;DHT22;8251;53.568;10.018;2022-09-02T07:16:58;23.40;52.20
16287;DHT22;8251;53.568;10.018;2022-09-02T07:19:27;23.40;52.40
16287;DHT22;8251;53.568;10.018;2022-09-02T07:21:54;23.40;52.60
16287;DHT22;8251;53.568;10.018;2022-09-02T07:24:22;23.60;52.50
16287;DHT22;8251;53.568;10.018;2022-09-02T07:26:49;23.90;52.00
16287;DHT22;8251;53.568;10.018;2022-09-02T07:29:17;24.70;50.20
16287;DHT22;8251;53.568;10.018;2022-09-02T07:31:45;25.50;49.10
16287;DHT22;8251;53.568;10.018;2022-09-02T07:34:13;26.50;47.60
16287;DHT22;8251;53.568;10.018;2022-09-02T07:36:41;27.60;45.40
16287;DHT22;8251;53.568;10.018;2022-09-02T07:39:12;28.40;43.70
16287;DHT22;8251;53.568;10.018;2022-09-02T07:41:42;29.10;41.80
16287;DHT22;8251;53.568;10.018;2022-09-02T07:44:10;29.80;40.60
16287;DHT22;8251;53.568;10.018;2022-09-02T07:46:37;30.20;39.70
16287;DHT22;8251;53.568;10.018;2022-09-02T07:49:07;30.30;39.20
16287;DHT22;8251;53.568;10.018;2022-09-02T07:51:36;30.30;38.80
16287;DHT22;8251;53.568;10.018;2022-09-02T07:54:09;30.20;39.20
16287;DHT22;8251;53.568;10.018;2022-09-02T07:56:38;30.00;39.30
16287;DHT22;8251;53.568;10.018;2022-09-02T07:59:05;29.90;39.70
16287;DHT22;8251;53.568;10.018;2022-09-02T08:01:32;30.10;39.70
16287;DHT22;8251;53.568;10.018;2022-09-02T08:03:59;30.40;39.10
16287;DHT22;8251;53.568;10.018;2022-09-02T08:06:26;30.70;38.60
16287;DHT22;8251;53.568;10.018;2022-09-02T08:08:54;30.70;38.00
16287;DHT22;8251;53.568;10.018;2022-09-02T08:11:23;30.20;38.30
16287;DHT22;8251;53.568;10.018;2022-09-02T08:13:51;29.90;39.10
16287;DHT22;8251;53.568;10.018;2022-09-02T08:16:18;29.70;39.30
16287;DHT22;8251;53.568;10.018;2022-09-02T08:18:48;29.70;39.60
16287;DHT22;8251;53.568;10.018;2022-09-02T08:21:16;29.60;39.30
16287;DHT22;8251;53.568;10.018;2022-09-02T08:23:43;29.70;38.90
16287;DHT22;8251;53.568;10.018;2022-09-02T08:26:11;29.80;38.90
16287;DHT22;8251;53.568;10.018;2022-09-02T08:28:39;30.00;38.90
16287;DHT22;8251;53.568;10.018;2022-09-02T08:31:07;30.10;38.50
16287;DHT22;8251;53.568;10.018;2022-09-02T08:33:37;30.30;38.30
16287;DHT22;8251;53.568;10.018;2022-09-02T08:36:05;30.60;38.00
16287;DHT22;8251;53.568;10.018;2022-09-02T08:38:35;30.90;37.50
16287;DHT22;8251;53.568;10.018;2022-09-02T08:41:12;31.40;37.10
16287;DHT22;8251;53.568;10.018;2022-09-02T08:43:43;31.90;36.50
16287;DHT22;8251;53.568;10.018;2022-09-02T08:46:12;32.40;36.10
16287;DHT22;8251;53.568;10.018;2022-09-02T08:48:45;32.70;35.30
16287;DHT22;8251;53.568;10.018;2022-09-02T08:51:19;32.40;34.90
16287;DHT22;8251;53.568;10.018;2022-09-02T08:53:50;32.30;35.10
16287;DHT22;8251;53.568;10.018;2022-09-02T08:56:19;32.60;35.10
16287;DHT22;8251;53.568;10.018;2022-09-02T08:58:50;32.90;34.50
16287;DHT22;8251;53.568;10.018;2022-09-02T09:01:27;33.30;33.90
16287;DHT22;8251;53.568;10.018;2022-09-02T09:04:09;33.70;33.30
16287;DHT22;8251;53.568;10.018;2022-09-02T09:06:50;34.00;32.70
16287;DHT22;8251;53.568;10.018;2022-09-02T09:09:27;34.00;32.50
16287;DHT22;8251;53.568;10.018;2022-09-02T09:12:04;33.90;32.30
16287;DHT22;8251;53.568;10.018;2022-09-02T09:14:43;33.70;32.70
16287;DHT22;8251;53.568;10.018;2022-09-02T09:17:20;33.20;33.30
16287;DHT22;8251;53.568;10.018;2022-09-02T09:19:53;32.40;33.90
16287;DHT22;8251;53.568;10.018;2022-09-02T09:22:30;31.50;34.70
16287;DHT22;8251;53.568;10.018;2022-09-02T09:25:03;30.80;36.30
16287;DHT22;8251;53.568;10.018;2022-09-02T09:27:33;30.20;37.00
16287;DHT22;8251;53.568;10.018;2022-09-02T09:30:07;29.70;37.70
16287;DHT22;8251;53.568;10.018;2022-09-02T09:32:38;29.10;38.30
16287;DHT22;8251;53.568;10.018;2022-09-02T09:35:08;28.70;39.40
16287;DHT22;8251;53.568;10.018;2022-09-02T09:37:40;28.50;40.00
16287;DHT22;8251;53.568;10.018;2022-09-02T09:40:35;28.60;40.00
16287;DHT22;8251;53.568;10.018;2022-09-02T09:43:12;28.70;39.40
16287;DHT22;8251;53.568;10.018;2022-09-02T09:45:46;29.10;39.10
16287;DHT22;8251;53.568;10.018;2022-09-02T09:48:20;29.40;38.90
16287;DHT22;8251;53.568;10.018;2022-09-02T09:51:12;29.70;38.30
16287;DHT22;8251;53.568;10.018;2022-09-02T09:53:41;30.10;37.40
16287;DHT22;8251;53.568;10.018;2022-09-02T09:56:23;30.30;37.20
16287;DHT22;8251;53.568;10.018;2022-09-02T09:58:51;30.60;37.00
16287;DHT22;8251;53.568;10.018;2022-09-02T10:01:23;30.70;36.60
16287;DHT22;8251;53.568;10.018;2022-09-02T10:03:56;30.80;36.40
16287;DHT22;8251;53.568;10.018;2022-09-02T10:06:36;30.90;36.00
16287;DHT22;8251;53.568;10.018;2022-09-02T10:09:28;31.30;35.80
16287;DHT22;8251;53.568;10.018;2022-09-02T10:11:58;31.60;35.70
16287;DHT22;8251;53.568;10.018;2022-09-02T10:14:29;32.10;35.20
16287;DHT22;8251;53.568;10.018;2022-09-02T10:17:10;32.50;34.60
16287;DHT22;8251;53.568;10.018;2022-09-02T10:19:46;32.80;34.20
16287;DHT22;8251;53.568;10.018;2022-09-02T10:25:33;33.10;32.80
16287;DHT22;8251;53.568;10.018;2022-09-02T10:28:10;33.10;33.10
16287;DHT22;8251;53.568;10.018;2022-09-02T10:30:49;33.10;33.20
16287;DHT22;8251;53.568;10.018;2022-09-02T10:33:27;33.10;33.30
16287;DHT22;8251;53.568;10.018;2022-09-02T10:36:06;33.10;33.50
16287;DHT22;8251;53.568;10.018;2022-09-02T10:38:38;33.20;33.20
16287;DHT22;8251;53.568;10.018;2022-09-02T10:41:15;33.20;33.20
16287;DHT22;8251;53.568;10.018;2022-09-02T10:44:02;33.30;33.30
16287;DHT22;8251;53.568;10.018;2022-09-02T10:46:43;33.30;32.50
16287;DHT22;8251;53.568;10.018;2022-09-02T10:49:24;33.30;32.90
16287;DHT22;8251;53.568;10.018;2022-09-02T10:51:59;33.40;32.70
16287;DHT22;8251;53.568;10.018;2022-09-02T10:54:38;33.30;32.50
16287;DHT22;8251;53.568;10.018;2022-09-02T10:57:14;33.20;32.00
16287;DHT22;8251;53.568;10.018;2022-09-02T10:59:46;33.20;32.70
16287;DHT22;8251;53.568;10.018;2022-09-02T11:02:18;33.20;32.50
16287;DHT22;8251;53.568;10.018;2022-09-02T11:04:51;33.30;32.70
16287;DHT22;8251;53.568;10.018;2022-09-02T11:07:26;33.30;31.90
16287;DHT22;8251;53.568;10.018;2022-09-02T11:09:56;33.20;31.70
16287;DHT22;8251;53.568;10.018;2022-09-02T11:12:29;32.80;31.70
16287;DHT22;8251;53.568;10.018;2022-09-02T11:15:02;32.20;32.60
16287;DHT22;8251;53.568;10.018;2022-09-02T11:17:39;31.70;33.60
16287;DHT22;8251;53.568;10.018;2022-09-02T11:20:15;31.70;34.00
16287;DHT22;8251;53.568;10.018;2022-09-02T11:22:51;31.80;33.60
16287;DHT22;8251;53.568;10.018;2022-09-02T11:25:23;31.80;33.30
16287;DHT22;8251;53.568;10.018;2022-09-02T11:27:57;31.80;33.50
16287;DHT22;8251;53.568;10.018;2022-09-02T11:30:34;31.50;33.60
16287;DHT22;8251;53.568;10.018;2022-09-02T11:33:12;31.00;34.00
16287;DHT22;8251;53.568;10.018;2022-09-02T11:35:43;30.70;34.40
16287;DHT22;8251;53.568;10.018;2022-09-02T11:38:23;30.40;34.80
16287;DHT22;8251;53.568;10.018;2022-09-02T11:43:50;30.20;35.30
16287;DHT22;8251;53.568;10.018;2022-09-02T11:46:31;30.40;35.30
16287;DHT22;8251;53.568;10.018;2022-09-02T11:49:25;30.30;35.10
16287;DHT22;8251;53.568;10.018;2022-09-02T11:52:30;30.10;35.90
16287;DHT22;8251;53.568;10.018;2022-09-02T11:55:06;30.30;35.40
16287;DHT22;8251;53.568;10.018;2022-09-02T11:57:34;30.30;35.30
16287;DHT22;8251;53.568;10.018;2022-09-02T12:00:12;30.30;35.30
16287;DHT22;8251;53.568;10.018;2022-09-02T12:05:48;30.40;35.10
16287;DHT22;8251;53.568;10.018;2022-09-02T12:11:47;30.60;34.40
16287;DHT22;8251;53.568;10.018;2022-09-02T12:21:09;29.90;35.10
16287;DHT22;8251;53.568;10.018;2022-09-02T12:49:58;28.30;37.50
16287;DHT22;8251;53.568;10.018;2022-09-02T12:52:43;28.60;37.20
16287;DHT22;8251;53.568;10.018;2022-09-02T13:15:56;29.10;35.90
16287;DHT22;8251;53.568;10.018;2022-09-02T13:18:46;29.20;35.30
16287;DHT22;8251;53.568;10.018;2022-09-02T13:21:44;29.20;35.40
16287;DHT22;8251;53.568;10.018;2022-09-02T13:45:12;27.60;36.80
16287;DHT22;8251;53.568;10.018;2022-09-02T13:47:41;27.50;36.60
16287;DHT22;8251;53.568;10.018;2022-09-02T13:50:09;27.30;37.20
16287;DHT22;8251;53.568;10.018;2022-09-02T14:13:37;26.70;38.20
16287;DHT22;8251;53.568;10.018;2022-09-02T14:16:25;26.70;38.80
16287;DHT22;8251;53.568;10.018;2022-09-02T14:19:10;26.60;39.30
16287;DHT22;8251;53.568;10.018;2022-09-02T14:21:48;26.50;38.90
16287;DHT22;8251;53.568;10.018;2022-09-02T15:04:20;25.70;39.50
16287;DHT22;8251;53.568;10.018;2022-09-02T15:06:47;25.70;39.50
16287;DHT22;8251;53.568;10.018;2022-09-02T15:09:16;25.80;39.60
16287;DHT22;8251;53.568;10.018;2022-09-02T15:11:48;25.80;39.10
16287;DHT22;8251;53.568;10.018;2022-09-02T15:14:21;25.90;39.20
16287;DHT22;8251;53.568;10.018;2022-09-02T15:16:50;25.90;39.30
16287;DHT22;8251;53.568;10.018;2022-09-02T15:19:22;25.90;39.40
16287;DHT22;8251;53.568;10.018;2022-09-02T15:21:57;25.90;39.40
16287;DHT22;8251;53.568;10.018;2022-09-02T15:24:25;25.90;39.60
16287;DHT22;8251;53.568;10.018;2022-09-02T15:26:55;25.90;39.50
16287;DHT22;8251;53.568;10.018;2022-09-02T15:29:24;25.90;39.60
16287;DHT22;8251;53.568;10.018;2022-09-02T15:31:53;26.10;40.40
16287;DHT22;8251;53.568;10.018;2022-09-02T15:34:23;26.20;39.70
16287;DHT22;8251;53.568;10.018;2022-09-02T15:36:53;26.40;39.70
16287;DHT22;8251;53.568;10.018;2022-09-02T15:39:21;26.50;39.20
16287;DHT22;8251;53.568;10.018;2022-09-02T15:41:49;26.60;39.00
16287;DHT22;8251;53.568;10.018;2022-09-02T15:44:16;26.70;38.70
16287;DHT22;8251;53.568;10.018;2022-09-02T15:46:43;26.70;38.50
16287;DHT22;8251;53.568;10.018;2022-09-02T15:49:12;26.80;38.20
16287;DHT22;8251;53.568;10.018;2022-09-02T15:51:46;26.80;38.10
16287;DHT22;8251;53.568;10.018;2022-09-02T15:54:17;26.90;37.50
16287;DHT22;8251;53.568;10.018;2022-09-02T15:56:46;27.00;37.70
16287;DHT22;8251;53.568;10.018;2022-09-02T15:59:15;26.90;37.40
16287;DHT22;8251;53.568;10.018;2022-09-02T16:01:44;27.00;37.60
16287;DHT22;8251;53.568;10.018;2022-09-02T16:04:13;27.00;37.50
16287;DHT22;8251;53.568;10.018;2022-09-02T16:06:45;26.90;37.60
16287;DHT22;8251;53.568;10.018;2022-09-02T16:09:15;26.90;37.70
16287;DHT22;8251;53.568;10.018;2022-09-02T16:11:44;26.80;37.40
16287;DHT22;8251;53.568;10.018;2022-09-02T16:14:12;26.70;37.70
16287;DHT22;8251;53.568;10.018;2022-09-02T16:16:40;26.60;37.70
16287;DHT22;8251;53.568;10.018;2022-09-02T16:19:10;26.50;37.70
16287;DHT22;8251;53.568;10.018;2022-09-02T16:21:37;26.40;37.50
16287;DHT22;8251;53.568;10.018;2022-09-02T16:24:08;26.30;37.90
16287;DHT22;8251;53.568;10.018;2022-09-02T16:26:36;26.20;38.20
16287;DHT22;8251;53.568;10.018;2022-09-02T16:29:08;26.10;38.40
16287;DHT22;8251;53.568;10.018;2022-09-02T16:31:38;26.00;38.30
16287;DHT22;8251;53.568;10.018;2022-09-02T16:34:06;26.00;38.40
16287;DHT22;8251;53.568;10.018;2022-09-02T16:36:36;25.90;38.80
16287;DHT22;8251;53.568;10.018;2022-09-02T16:39:09;25.90;38.60
16287;DHT22;8251;53.568;10.018;2022-09-02T16:41:41;25.80;38.80
16287;DHT22;8251;53.568;10.018;2022-09-02T16:44:11;25.70;39.00
16287;DHT22;8251;53.568;10.018;2022-09-02T16:46:41;25.70;39.20
16287;DHT22;8251;53.568;10.018;2022-09-02T16:49:09;25.60;39.30
16287;DHT22;8251;53.568;10.018;2022-09-02T16:51:37;25.60;39.60
16287;DHT22;8251;53.568;10.018;2022-09-02T16:54:08;25.50;39.40
16287;DHT22;8251;53.568;10.018;2022-09-02T16:56:36;25.40;39.30
16287;DHT22;8251;53.568;10.018;2022-09-02T16:59:05;25.40;39.70
16287;DHT22;8251;53.568;10.018;2022-09-02T17:01:32;25.30;39.60
16287;DHT22;8251;53.568;10.018;2022-09-02T17:04:00;25.20;39.70
16287;DHT22;8251;53.568;10.018;2022-09-02T17:06:28;25.20;40.00
16287;DHT22;8251;53.568;10.018;2022-09-02T17:08:55;25.10;40.10
16287;DHT22;8251;53.568;10.018;2022-09-02T17:11:25;25.00;40.20
16287;DHT22;8251;53.568;10.018;2022-09-02T17:13:54;25.00;40.20
16287;DHT22;8251;53.568;10.018;2022-09-02T17:16:24;24.90;40.30
16287;DHT22;8251;53.568;10.018;2022-09-02T17:18:52;24.80;40.40
16287;DHT22;8251;53.568;10.018;2022-09-02T17:21:24;24.80;40.60
16287;DHT22;8251;53.568;10.018;2022-09-02T17:23:53;24.80;40.60
16287;DHT22;8251;53.568;10.018;2022-09-02T17:26:23;24.70;40.80
16287;DHT22;8251;53.568;10.018;2022-09-02T17:28:51;24.70;41.00
16287;DHT22;8251;53.568;10.018;2022-09-02T17:31:24;24.70;41.00
16287;DHT22;8251;53.568;10.018;2022-09-02T17:33:52;24.70;41.10
16287;DHT22;8251;53.568;10.018;2022-09-02T17:36:21;24.60;41.30
16287;DHT22;8251;53.568;10.018;2022-09-02T17:38:54;24.50;41.40
16287;DHT22;8251;53.568;10.018;2022-09-02T17:41:27;24.50;41.60
16287;DHT22;8251;53.568;10.018;2022-09-02T17:44:13;24.40;41.70
16287;DHT22;8251;53.568;10.018;2022-09-02T17:46:41;24.40;41.90
16287;DHT22;8251;53.568;10.018;2022-09-02T17:49:17;24.40;42.20
16287;DHT22;8251;53.568;10.018;2022-09-02T17:51:45;24.30;42.40
16287;DHT22;8251;53.568;10.018;2022-09-02T17:54:12;24.20;42.60
16287;DHT22;8251;53.568;10.018;2022-09-02T17:57:07;24.20;42.90
16287;DHT22;8251;53.568;10.018;2022-09-02T17:59:45;24.20;42.90
16287;DHT22;8251;53.568;10.018;2022-09-02T18:02:35;24.10;43.20
16287;DHT22;8251;53.568;10.018;2022-09-02T18:05:08;24.10;43.30
16287;DHT22;8251;53.568;10.018;2022-09-02T18:07:44;24.00;43.40
16287;DHT22;8251;53.568;10.018;2022-09-02T18:10:16;23.90;43.50
16287;DHT22;8251;53.568;10.018;2022-09-02T18:12:44;23.90;43.70
16287;DHT22;8251;53.568;10.018;2022-09-02T18:15:24;23.90;43.80
16287;DHT22;8251;53.568;10.018;2022-09-02T18:17:57;23.80;43.90
16287;DHT22;8251;53.568;10.018;2022-09-02T18:20:38;23.80;44.00
16287;DHT22;8251;53.568;10.018;2022-09-02T18:23:39;23.80;44.30
16287;DHT22;8251;53.568;10.018;2022-09-02T18:26:20;23.80;44.40